• Join FlightAware (Why Join?)
  • Login
  • US Flag 
10:02PM EDT


 

Airport Tracker/Info


-or-


 

Live Flight TrackerFlight Track Log ✈ DLA1865 ✈ 10-Apr-2013 ✈ LIMC / MXP - EDDM / MUC

Flight Track Log - Related Links

Times and Time Zones

All times are in EDT time to prevent confusion due to time zone crossing. See the DLA1865 flight status page for this flight to view local times or setup timezone preferences in your user account.

Time Position Orientation Groundspeed Altitude Reporting Facility
EDT Latitude Longitude Course Direction KTS MPH feet Rate Location/Type
03:35PM 46.0409 9.1638 36° Northeast  Level Estimated
03:36PM 46.0993 9.2265 37° Northeast  Level Estimated
03:37PM 46.1578 9.2894 37° Northeast  Level Estimated
03:38PM 46.2162 9.3525 37° Northeast  Level Estimated
03:39PM 46.2745 9.4156 37° Northeast  Level Estimated
03:40PM 46.3329 9.4789 37° Northeast  Level Estimated
03:41PM 46.3912 9.5424 37° Northeast  Level Estimated
03:42PM 46.4494 9.6059 37° Northeast  Level Estimated
03:43PM 46.5076 9.6697 37° Northeast  Level Estimated
03:44PM 46.5658 9.7335 37° Northeast  Level Estimated
03:45PM 46.6240 9.7975 37° Northeast  Level Estimated
03:46PM 46.6821 9.8616 37° Northeast  Level Estimated
03:47PM 46.7402 9.9258 37° Northeast  Level Estimated
03:48PM 46.7982 9.9902 37° Northeast  Level Estimated
03:49PM 46.8563 10.0548 37° Northeast  Level Estimated
03:50PM 46.9142 10.1194 37° Northeast  Level Estimated
03:51PM 46.9722 10.1843 37° Northeast  Level Estimated
03:52PM 47.0301 10.2492 37° Northeast  Level Estimated
03:53PM 47.0879 10.3143 37° Northeast  Level Estimated
03:54PM 47.1458 10.3795 37° Northeast  Level Estimated
03:55PM 47.2035 10.4449 38° Northeast  Level Estimated
03:56PM 47.2613 10.5105 38° Northeast  Level Estimated
03:57PM 47.3190 10.5761 38° Northeast  Level Estimated
03:58PM 47.3767 10.6419 38° Northeast  Level Estimated
03:59PM 47.4343 10.7079 38° Northeast  Level Estimated
04:00PM 47.4919 10.7740 38° Northeast  Level Estimated
04:01PM 47.5495 10.8402 38° Northeast  Level Estimated
04:02PM 47.6070 10.9066 38° Northeast  Level Estimated
04:03PM 47.6645 10.9731 38° Northeast  Level Estimated
04:04PM 47.7220 11.0398 38° Northeast  Level Estimated
04:05PM 47.7794 11.1066 38° Northeast  Level Estimated
04:06PM 47.8368 11.1736 38° Northeast  Level Estimated
04:07PM 47.8941 11.2407 38° Northeast  Level Estimated
04:08PM 47.9514 11.3080 38° Northeast  Level Estimated
04:09PM 48.0086 11.3754 38° Northeast  Level Estimated
04:10PM 48.0658 11.4430 38° Northeast  Level Estimated
04:11PM 48.1230 11.5107 38° Northeast  Level Estimated
04:12PM 48.1801 11.5786 38° Northeast  Level Estimated
04:13PM 48.2372 11.6466 38° Northeast  Level Estimated
04:14PM 48.2943 11.7148 38° Northeast  Level Estimated
04:15PM 48.3513 11.7831 39° Northeast  Level Estimated
04:16PM 48.3538 11.7861 39° Northeast  Level Estimated
04:17PM 48.3538 11.7861 318° Northwest  Level Estimated
04:18PM 48.3538 11.7861 318° Northwest  Level Estimated
04:19PM 48.3538 11.7861 318° Northwest  Level Estimated
04:20PM 48.3538 11.7861 318° Northwest  Level Estimated
04:21PM 48.3538 11.7861 318° Northwest  Level Estimated
04:22PM 48.3538 11.7861 318° Northwest  Level Estimated
04:23PM 48.3538 11.7861 318° Northwest  Level Estimated
04:24PM 48.3538 11.7861 318° Northwest  Level Estimated
04:25PM 48.3538 11.7861 318° Northwest  Level Estimated
04:26PM 48.3538 11.7861 318° Northwest  Level Estimated
04:27PM 48.3538 11.7861 318° Northwest  Level Estimated
04:28PM 48.3538 11.7861 318° Northwest  Level Estimated
04:29PM 48.3538 11.7861 318° Northwest  Level Estimated
04:30PM 48.3538 11.7861 318° Northwest  Level Estimated
04:31PM 48.3538 11.7861 318° Northwest  Level Estimated